sensor_id;sensor_type;location;lat;lon;timestamp;pressure;altitude;pressure_sealevel;temperature;humidity
47556;BME280;33291;46.222;26.460;2023-03-19T00:01:26;97110.19;;;-0.81;85.03
47556;BME280;33291;46.222;26.460;2023-03-19T00:03:52;97109.34;;;-0.81;84.72
47556;BME280;33291;46.222;26.460;2023-03-19T00:06:18;97088.47;;;-0.94;84.82
47556;BME280;33291;46.222;26.460;2023-03-19T00:08:43;97098.69;;;-0.93;85.05
47556;BME280;33291;46.222;26.460;2023-03-19T00:11:10;97096.13;;;-0.93;85.47
47556;BME280;33291;46.222;26.460;2023-03-19T00:13:36;97085.91;;;-0.94;85.66
47556;BME280;33291;46.222;26.460;2023-03-19T00:16:02;97066.84;;;-1.09;85.53
47556;BME280;33291;46.222;26.460;2023-03-19T00:18:28;97065.00;;;-1.05;85.42
47556;BME280;33291;46.222;26.460;2023-03-19T00:20:54;97088.41;;;-0.91;85.77
47556;BME280;33291;46.222;26.460;2023-03-19T00:23:21;97085.72;;;-0.88;85.60
47556;BME280;33291;46.222;26.460;2023-03-19T00:25:46;97068.75;;;-0.91;85.72
47556;BME280;33291;46.222;26.460;2023-03-19T00:28:12;97067.78;;;-0.86;85.45
47556;BME280;33291;46.222;26.460;2023-03-19T00:30:37;97074.59;;;-0.87;85.28
47556;BME280;33291;46.222;26.460;2023-03-19T00:33:03;97074.88;;;-0.95;85.52
47556;BME280;33291;46.222;26.460;2023-03-19T00:35:28;97061.56;;;-1.04;85.75
47556;BME280;33291;46.222;26.460;2023-03-19T00:37:54;97059.84;;;-1.04;85.75
47556;BME280;33291;46.222;26.460;2023-03-19T00:40:19;97057.34;;;-1.05;85.83
47556;BME280;33291;46.222;26.460;2023-03-19T00:42:45;97063.00;;;-0.97;85.62
47556;BME280;33291;46.222;26.460;2023-03-19T00:45:11;97061.25;;;-0.95;85.63
47556;BME280;33291;46.222;26.460;2023-03-19T00:47:37;97056.19;;;-0.97;85.89
47556;BME280;33291;46.222;26.460;2023-03-19T00:50:03;97059.56;;;-0.96;85.84
47556;BME280;33291;46.222;26.460;2023-03-19T00:52:29;97059.69;;;-0.99;85.62
47556;BME280;33291;46.222;26.460;2023-03-19T00:54:55;97048.84;;;-1.06;85.98
47556;BME280;33291;46.222;26.460;2023-03-19T00:57:21;97049.78;;;-1.09;86.31
47556;BME280;33291;46.222;26.460;2023-03-19T00:59:47;97057.50;;;-1.10;86.18
47556;BME280;33291;46.222;26.460;2023-03-19T01:02:12;97046.72;;;-1.18;86.45
47556;BME280;33291;46.222;26.460;2023-03-19T01:04:38;97043.19;;;-1.16;86.31
47556;BME280;33291;46.222;26.460;2023-03-19T01:07:03;97050.00;;;-1.15;86.56
47556;BME280;33291;46.222;26.460;2023-03-19T01:09:29;97039.94;;;-1.19;86.44
47556;BME280;33291;46.222;26.460;2023-03-19T01:11:55;97045.81;;;-1.17;86.89
47556;BME280;33291;46.222;26.460;2023-03-19T01:14:21;97004.91;;;-1.41;86.93
47556;BME280;33291;46.222;26.460;2023-03-19T01:16:46;97042.31;;;-1.15;86.97
47556;BME280;33291;46.222;26.460;2023-03-19T01:19:12;97052.59;;;-1.16;86.83
47556;BME280;33291;46.222;26.460;2023-03-19T01:21:38;97038.31;;;-1.22;86.97
47556;BME280;33291;46.222;26.460;2023-03-19T01:24:04;97035.03;;;-1.26;86.98
47556;BME280;33291;46.222;26.460;2023-03-19T01:26:29;97037.59;;;-1.26;87.28
47556;BME280;33291;46.222;26.460;2023-03-19T01:28:56;97034.19;;;-1.26;87.74
47556;BME280;33291;46.222;26.460;2023-03-19T01:31:22;97041.03;;;-1.27;87.53
47556;BME280;33291;46.222;26.460;2023-03-19T01:33:48;97033.50;;;-1.31;87.31
47556;BME280;33291;46.222;26.460;2023-03-19T01:36:13;97034.50;;;-1.35;87.21
47556;BME280;33291;46.222;26.460;2023-03-19T01:38:39;97027.75;;;-1.36;87.63
47556;BME280;33291;46.222;26.460;2023-03-19T01:41:04;97033.72;;;-1.37;87.68
47556;BME280;33291;46.222;26.460;2023-03-19T01:43:30;97025.28;;;-1.39;87.76
47556;BME280;33291;46.222;26.460;2023-03-19T01:48:48;97018.59;;;-1.44;88.09
47556;BME280;33291;46.222;26.460;2023-03-19T01:51:17;97015.16;;;-1.42;88.37
47556;BME280;33291;46.222;26.460;2023-03-19T01:53:47;97027.78;;;-1.38;88.08
47556;BME280;33291;46.222;26.460;2023-03-19T01:56:19;97003.59;;;-1.53;88.10
47556;BME280;33291;46.222;26.460;2023-03-19T01:58:47;97022.88;;;-1.44;88.48
47556;BME280;33291;46.222;26.460;2023-03-19T02:01:14;97023.72;;;-1.44;88.20
47556;BME280;33291;46.222;26.460;2023-03-19T02:03:39;97018.81;;;-1.50;88.17
47556;BME280;33291;46.222;26.460;2023-03-19T02:06:07;97029.84;;;-1.49;88.46
47556;BME280;33291;46.222;26.460;2023-03-19T02:08:36;97032.31;;;-1.46;88.54
47556;BME280;33291;46.222;26.460;2023-03-19T02:11:03;97024.09;;;-1.54;88.30
47556;BME280;33291;46.222;26.460;2023-03-19T02:13:29;97019.91;;;-1.57;88.59
47556;BME280;33291;46.222;26.460;2023-03-19T02:15:55;97023.94;;;-1.50;88.36
47556;BME280;33291;46.222;26.460;2023-03-19T02:18:21;97030.75;;;-1.50;88.46
47556;BME280;33291;46.222;26.460;2023-03-19T02:21:07;97030.72;;;-1.49;88.38
47556;BME280;33291;46.222;26.460;2023-03-19T02:23:38;97036.81;;;-1.53;88.49
47556;BME280;33291;46.222;26.460;2023-03-19T02:26:17;97031.78;;;-1.56;88.46
47556;BME280;33291;46.222;26.460;2023-03-19T02:28:45;97040.28;;;-1.55;88.41
47556;BME280;33291;46.222;26.460;2023-03-19T02:31:12;97042.06;;;-1.57;88.41
47556;BME280;33291;46.222;26.460;2023-03-19T02:33:37;97034.59;;;-1.64;88.40
47556;BME280;33291;46.222;26.460;2023-03-19T02:36:05;97042.06;;;-1.57;88.68
47556;BME280;33291;46.222;26.460;2023-03-19T02:38:33;97033.59;;;-1.59;88.67
47556;BME280;33291;46.222;26.460;2023-03-19T02:41:03;97042.16;;;-1.61;88.63
47556;BME280;33291;46.222;26.460;2023-03-19T02:43:33;97027.91;;;-1.68;88.50
47556;BME280;33291;46.222;26.460;2023-03-19T02:46:01;97043.91;;;-1.63;88.73
47556;BME280;33291;46.222;26.460;2023-03-19T02:48:26;97038.09;;;-1.66;88.71
47556;BME280;33291;46.222;26.460;2023-03-19T02:50:52;97027.25;;;-1.73;88.84
47556;BME280;33291;46.222;26.460;2023-03-19T02:53:18;97040.78;;;-1.71;88.82
47556;BME280;33291;46.222;26.460;2023-03-19T02:55:43;97037.56;;;-1.76;89.23
47556;BME280;33291;46.222;26.460;2023-03-19T02:58:10;97023.88;;;-1.75;89.18
47556;BME280;33291;46.222;26.460;2023-03-19T03:00:35;97033.38;;;-1.79;89.53
47556;BME280;33291;46.222;26.460;2023-03-19T03:03:01;97009.19;;;-1.93;89.92
47556;BME280;33291;46.222;26.460;2023-03-19T03:05:27;97028.22;;;-1.77;90.16
47556;BME280;33291;46.222;26.460;2023-03-19T03:07:53;97020.56;;;-1.77;90.30
47556;BME280;33291;46.222;26.460;2023-03-19T03:10:18;97024.81;;;-1.76;89.97
47556;BME280;33291;46.222;26.460;2023-03-19T03:12:44;97028.06;;;-1.72;89.44
47556;BME280;33291;46.222;26.460;2023-03-19T03:15:11;97018.88;;;-1.78;90.40
47556;BME280;33291;46.222;26.460;2023-03-19T03:17:42;97036.50;;;-1.70;90.54
47556;BME280;33291;46.222;26.460;2023-03-19T03:20:08;97035.22;;;-1.82;89.96
47556;BME280;33291;46.222;26.460;2023-03-19T03:22:36;97031.19;;;-1.89;90.46
47556;BME280;33291;46.222;26.460;2023-03-19T03:25:02;97024.44;;;-1.92;90.29
47556;BME280;33291;46.222;26.460;2023-03-19T03:27:28;97025.31;;;-1.93;90.64
47556;BME280;33291;46.222;26.460;2023-03-19T03:29:53;97024.50;;;-1.93;90.60
47556;BME280;33291;46.222;26.460;2023-03-19T03:32:19;97029.41;;;-1.87;90.22
47556;BME280;33291;46.222;26.460;2023-03-19T03:34:45;97039.72;;;-1.90;90.64
47556;BME280;33291;46.222;26.460;2023-03-19T03:37:11;97032.09;;;-1.92;90.88
47556;BME280;33291;46.222;26.460;2023-03-19T03:39:36;97037.88;;;-1.85;90.33
47556;BME280;33291;46.222;26.460;2023-03-19T03:42:02;96991.84;;;-2.10;90.66
47556;BME280;33291;46.222;26.460;2023-03-19T03:44:27;97022.81;;;-1.94;90.08
47556;BME280;33291;46.222;26.460;2023-03-19T03:46:53;96987.78;;;-2.16;90.68
47556;BME280;33291;46.222;26.460;2023-03-19T03:49:18;97001.25;;;-2.11;90.67
47556;BME280;33291;46.222;26.460;2023-03-19T03:51:44;97027.06;;;-1.93;90.35
47556;BME280;33291;46.222;26.460;2023-03-19T03:54:09;97028.81;;;-1.95;90.82
47556;BME280;33291;46.222;26.460;2023-03-19T03:56:35;97019.59;;;-2.00;90.61
47556;BME280;33291;46.222;26.460;2023-03-19T03:59:01;97011.44;;;-2.11;90.38
47556;BME280;33291;46.222;26.460;2023-03-19T04:01:27;96981.28;;;-2.26;89.82
47556;BME280;33291;46.222;26.460;2023-03-19T04:03:53;97025.84;;;-2.10;90.35
47556;BME280;33291;46.222;26.460;2023-03-19T04:06:20;97014.97;;;-2.15;90.41
47556;BME280;33291;46.222;26.460;2023-03-19T04:08:46;97022.44;;;-2.09;90.30
47556;BME280;33291;46.222;26.460;2023-03-19T04:11:12;96992.44;;;-2.29;90.54
47556;BME280;33291;46.222;26.460;2023-03-19T04:13:37;97018.31;;;-2.13;89.99
47556;BME280;33291;46.222;26.460;2023-03-19T04:16:04;97030.00;;;-2.06;90.21
47556;BME280;33291;46.222;26.460;2023-03-19T04:18:31;97026.66;;;-2.08;90.11
47556;BME280;33291;46.222;26.460;2023-03-19T04:20:56;97023.31;;;-2.10;89.92
47556;BME280;33291;46.222;26.460;2023-03-19T04:23:23;97035.06;;;-2.04;90.23
47556;BME280;33291;46.222;26.460;2023-03-19T04:25:48;97036.97;;;-2.11;90.45
47556;BME280;33291;46.222;26.460;2023-03-19T04:28:15;97028.66;;;-2.18;90.76
47556;BME280;33291;46.222;26.460;2023-03-19T04:30:40;97041.22;;;-2.11;90.97
47556;BME280;33291;46.222;26.460;2023-03-19T04:33:08;97032.75;;;-2.12;91.29
47556;BME280;33291;46.222;26.460;2023-03-19T04:35:33;96999.25;;;-2.29;91.46
47556;BME280;33291;46.222;26.460;2023-03-19T04:37:59;97024.16;;;-2.09;91.36
47556;BME280;33291;46.222;26.460;2023-03-19T04:40:25;97031.78;;;-2.08;91.08
47556;BME280;33291;46.222;26.460;2023-03-19T04:42:50;97034.13;;;-2.02;91.21
47556;BME280;33291;46.222;26.460;2023-03-19T04:45:15;97031.63;;;-2.03;91.12
47556;BME280;33291;46.222;26.460;2023-03-19T04:47:41;97028.31;;;-2.07;90.88
47556;BME280;33291;46.222;26.460;2023-03-19T04:50:08;97040.09;;;-2.03;90.98
47556;BME280;33291;46.222;26.460;2023-03-19T04:52:34;97040.84;;;-1.99;91.26
47556;BME280;33291;46.222;26.460;2023-03-19T04:55:02;97029.94;;;-2.04;91.16
47556;BME280;33291;46.222;26.460;2023-03-19T04:57:27;97025.72;;;-2.05;91.65
47556;BME280;33291;46.222;26.460;2023-03-19T04:59:53;97038.94;;;-1.92;91.70
47556;BME280;33291;46.222;26.460;2023-03-19T05:02:18;97042.97;;;-1.85;91.72
47556;BME280;33291;46.222;26.460;2023-03-19T05:04:43;97040.22;;;-1.79;91.66
47556;BME280;33291;46.222;26.460;2023-03-19T05:07:09;97041.63;;;-1.70;91.43
47556;BME280;33291;46.222;26.460;2023-03-19T05:09:35;97025.47;;;-1.71;91.42
47556;BME280;33291;46.222;26.460;2023-03-19T05:12:00;97028.50;;;-1.59;91.02
47556;BME280;33291;46.222;26.460;2023-03-19T05:14:25;97028.09;;;-1.47;90.68
47556;BME280;33291;46.222;26.460;2023-03-19T05:16:51;97021.94;;;-1.41;91.04
47556;BME280;33291;46.222;26.460;2023-03-19T05:19:17;97029.38;;;-1.35;90.75
47556;BME280;33291;46.222;26.460;2023-03-19T05:21:42;97027.47;;;-1.29;90.59
47556;BME280;33291;46.222;26.460;2023-03-19T05:24:08;97019.00;;;-1.31;90.48
47556;BME280;33291;46.222;26.460;2023-03-19T05:26:33;97037.22;;;-1.15;90.00
47556;BME280;33291;46.222;26.460;2023-03-19T05:28:58;97033.72;;;-1.12;89.55
47556;BME280;33291;46.222;26.460;2023-03-19T05:31:24;97038.50;;;-1.03;89.35
47556;BME280;33291;46.222;26.460;2023-03-19T05:33:50;97041.50;;;-0.92;89.06
47556;BME280;33291;46.222;26.460;2023-03-19T05:36:15;97035.28;;;-0.84;88.47
47556;BME280;33291;46.222;26.460;2023-03-19T05:38:42;97038.63;;;-0.82;88.62
47556;BME280;33291;46.222;26.460;2023-03-19T05:41:08;97031.69;;;-0.79;88.82
47556;BME280;33291;46.222;26.460;2023-03-19T05:43:33;97040.00;;;-0.74;88.63
47556;BME280;33291;46.222;26.460;2023-03-19T05:45:59;97034.63;;;-0.66;88.38
47556;BME280;33291;46.222;26.460;2023-03-19T05:48:25;97030.00;;;-0.56;87.99
47556;BME280;33291;46.222;26.460;2023-03-19T05:50:51;97021.25;;;-0.50;87.49
47556;BME280;33291;46.222;26.460;2023-03-19T05:53:17;97020.88;;;-0.41;87.36
47556;BME280;33291;46.222;26.460;2023-03-19T05:55:43;97029.00;;;-0.30;86.79
47556;BME280;33291;46.222;26.460;2023-03-19T05:58:09;97033.78;;;-0.21;86.59
47556;BME280;33291;46.222;26.460;2023-03-19T06:00:35;97025.84;;;-0.14;86.39
47556;BME280;33291;46.222;26.460;2023-03-19T06:03:00;97018.81;;;-0.09;85.80
47556;BME280;33291;46.222;26.460;2023-03-19T06:05:26;97024.53;;;-0.03;86.14
47556;BME280;33291;46.222;26.460;2023-03-19T06:07:52;97029.47;;;0.02;85.70
47556;BME280;33291;46.222;26.460;2023-03-19T06:10:18;96994.38;;;-0.16;85.61
47556;BME280;33291;46.222;26.460;2023-03-19T06:12:43;97028.28;;;0.11;85.78
47556;BME280;33291;46.222;26.460;2023-03-19T06:15:09;97001.25;;;0.04;86.07
47556;BME280;33291;46.222;26.460;2023-03-19T06:17:35;97013.44;;;0.19;86.45
47556;BME280;33291;46.222;26.460;2023-03-19T06:20:01;97009.59;;;0.29;86.22
47556;BME280;33291;46.222;26.460;2023-03-19T06:22:27;97001.84;;;0.31;85.58
47556;BME280;33291;46.222;26.460;2023-03-19T06:24:52;97022.53;;;0.47;85.65
47556;BME280;33291;46.222;26.460;2023-03-19T06:27:18;97014.53;;;0.55;85.30
47556;BME280;33291;46.222;26.460;2023-03-19T06:29:43;97027.75;;;0.66;84.86
47556;BME280;33291;46.222;26.460;2023-03-19T06:32:09;97027.47;;;0.72;84.71
47556;BME280;33291;46.222;26.460;2023-03-19T06:34:35;97015.41;;;0.74;85.82
47556;BME280;33291;46.222;26.460;2023-03-19T06:37:00;97026.13;;;0.84;86.24
47556;BME280;33291;46.222;26.460;2023-03-19T06:39:26;97021.44;;;0.94;85.75
47556;BME280;33291;46.222;26.460;2023-03-19T06:41:52;97013.19;;;1.06;85.74
47556;BME280;33291;46.222;26.460;2023-03-19T06:44:17;96991.72;;;1.09;84.46
47556;BME280;33291;46.222;26.460;2023-03-19T06:46:43;96990.06;;;1.27;83.74
47556;BME280;33291;46.222;26.460;2023-03-19T06:49:09;97006.63;;;1.57;83.17
47556;BME280;33291;46.222;26.460;2023-03-19T06:51:34;97008.47;;;1.73;82.82
47556;BME280;33291;46.222;26.460;2023-03-19T06:54:00;97011.84;;;1.92;82.69
47556;BME280;33291;46.222;26.460;2023-03-19T06:56:25;97001.91;;;2.04;81.86
47556;BME280;33291;46.222;26.460;2023-03-19T06:58:51;96999.78;;;2.12;80.97
47556;BME280;33291;46.222;26.460;2023-03-19T07:01:17;97000.53;;;2.31;80.26
47556;BME280;33291;46.222;26.460;2023-03-19T07:03:43;97006.69;;;2.46;80.25
47556;BME280;33291;46.222;26.460;2023-03-19T07:06:08;97005.09;;;2.61;79.72
47556;BME280;33291;46.222;26.460;2023-03-19T07:08:34;96999.16;;;2.77;79.28
47556;BME280;33291;46.222;26.460;2023-03-19T07:11:04;96998.47;;;3.07;78.45
47556;BME280;33291;46.222;26.460;2023-03-19T07:13:30;96992.22;;;3.28;77.92
47556;BME280;33291;46.222;26.460;2023-03-19T07:15:57;96986.47;;;3.55;77.15
47556;BME280;33291;46.222;26.460;2023-03-19T07:18:23;96991.22;;;3.79;76.01
47556;BME280;33291;46.222;26.460;2023-03-19T07:20:48;97000.16;;;4.03;75.03
47556;BME280;33291;46.222;26.460;2023-03-19T07:23:14;96991.28;;;4.23;74.25
47556;BME280;33291;46.222;26.460;2023-03-19T07:25:40;96989.41;;;4.41;72.29
47556;BME280;33291;46.222;26.460;2023-03-19T07:28:05;96991.84;;;4.73;70.35
47556;BME280;33291;46.222;26.460;2023-03-19T07:30:31;96976.75;;;4.82;68.72
47556;BME280;33291;46.222;26.460;2023-03-19T07:32:57;96987.66;;;5.01;68.01
47556;BME280;33291;46.222;26.460;2023-03-19T07:35:22;96979.06;;;5.15;66.91
47556;BME280;33291;46.222;26.460;2023-03-19T07:37:48;96979.69;;;5.33;66.84
47556;BME280;33291;46.222;26.460;2023-03-19T07:40:14;96982.97;;;5.49;65.80
47556;BME280;33291;46.222;26.460;2023-03-19T07:42:39;96968.56;;;5.60;65.05
47556;BME280;33291;46.222;26.460;2023-03-19T07:45:05;96974.63;;;5.73;64.57
47556;BME280;33291;46.222;26.460;2023-03-19T07:47:31;96967.84;;;5.85;64.18
47556;BME280;33291;46.222;26.460;2023-03-19T07:49:57;96969.72;;;5.96;63.74
47556;BME280;33291;46.222;26.460;2023-03-19T07:52:23;96972.06;;;6.13;61.80
47556;BME280;33291;46.222;26.460;2023-03-19T07:54:49;96955.56;;;6.29;61.03
47556;BME280;33291;46.222;26.460;2023-03-19T07:57:15;96930.13;;;6.22;61.01
47556;BME280;33291;46.222;26.460;2023-03-19T07:59:41;96954.66;;;6.55;60.08
47556;BME280;33291;46.222;26.460;2023-03-19T08:02:10;96953.13;;;6.66;59.42
47556;BME280;33291;46.222;26.460;2023-03-19T08:04:35;96952.50;;;6.75;59.50
47556;BME280;33291;46.222;26.460;2023-03-19T08:07:01;96945.56;;;6.88;59.46
47556;BME280;33291;46.222;26.460;2023-03-19T08:09:27;96940.03;;;7.06;58.73
47556;BME280;33291;46.222;26.460;2023-03-19T08:11:52;96937.75;;;7.14;58.48
47556;BME280;33291;46.222;26.460;2023-03-19T08:14:18;96943.53;;;7.31;58.02
47556;BME280;33291;46.222;26.460;2023-03-19T08:16:47;96927.13;;;7.43;58.04
47556;BME280;33291;46.222;26.460;2023-03-19T08:19:13;96935.13;;;7.64;57.57
47556;BME280;33291;46.222;26.460;2023-03-19T08:21:39;96933.44;;;7.76;57.24
47556;BME280;33291;46.222;26.460;2023-03-19T08:24:05;96931.69;;;7.88;56.43
47556;BME280;33291;46.222;26.460;2023-03-19T08:26:30;96917.47;;;8.05;55.85
47556;BME280;33291;46.222;26.460;2023-03-19T08:28:57;96931.94;;;8.20;55.76
47556;BME280;33291;46.222;26.460;2023-03-19T08:31:23;96927.25;;;8.36;55.61
47556;BME280;33291;46.222;26.460;2023-03-19T08:33:48;96927.56;;;8.56;54.66
47556;BME280;33291;46.222;26.460;2023-03-19T08:36:14;96918.75;;;8.70;54.36
47556;BME280;33291;46.222;26.460;2023-03-19T08:38:40;96929.34;;;8.89;53.41
47556;BME280;33291;46.222;26.460;2023-03-19T08:41:07;96931.16;;;9.00;52.73
47556;BME280;33291;46.222;26.460;2023-03-19T08:43:34;96927.59;;;9.13;52.81
47556;BME280;33291;46.222;26.460;2023-03-19T08:46:01;96912.72;;;9.15;52.82
47556;BME280;33291;46.222;26.460;2023-03-19T08:48:26;96906.53;;;9.27;52.35
47556;BME280;33291;46.222;26.460;2023-03-19T08:50:54;96887.63;;;9.36;51.58
47556;BME280;33291;46.222;26.460;2023-03-19T08:53:20;96921.50;;;9.57;51.80
47556;BME280;33291;46.222;26.460;2023-03-19T08:55:53;96913.69;;;9.69;51.53
47556;BME280;33291;46.222;26.460;2023-03-19T08:58:20;96910.91;;;9.82;51.51
47556;BME280;33291;46.222;26.460;2023-03-19T09:00:46;96906.38;;;9.95;50.66
47556;BME280;33291;46.222;26.460;2023-03-19T09:03:12;96902.63;;;10.09;50.47
47556;BME280;33291;46.222;26.460;2023-03-19T09:05:38;96905.75;;;10.24;49.80
47556;BME280;33291;46.222;26.460;2023-03-19T09:08:03;96899.91;;;10.31;49.98
47556;BME280;33291;46.222;26.460;2023-03-19T09:10:29;96893.03;;;10.42;49.92
47556;BME280;33291;46.222;26.460;2023-03-19T09:12:54;96893.66;;;10.55;48.87
47556;BME280;33291;46.222;26.460;2023-03-19T09:15:20;96896.97;;;10.67;48.97
47556;BME280;33291;46.222;26.460;2023-03-19T09:17:45;96887.56;;;10.76;48.84
47556;BME280;33291;46.222;26.460;2023-03-19T09:20:11;96890.38;;;10.94;48.60
47556;BME280;33291;46.222;26.460;2023-03-19T09:22:36;96878.91;;;11.06;47.43
47556;BME280;33291;46.222;26.460;2023-03-19T09:25:02;96881.56;;;11.16;47.17
47556;BME280;33291;46.222;26.460;2023-03-19T09:27:27;96882.97;;;11.30;46.88
47556;BME280;33291;46.222;26.460;2023-03-19T09:29:53;96878.56;;;11.40;46.38
47556;BME280;33291;46.222;26.460;2023-03-19T09:32:19;96869.81;;;11.51;45.34
47556;BME280;33291;46.222;26.460;2023-03-19T09:34:44;96867.88;;;11.63;45.01
47556;BME280;33291;46.222;26.460;2023-03-19T09:37:11;96871.75;;;11.68;45.58
47556;BME280;33291;46.222;26.460;2023-03-19T09:39:36;96865.44;;;11.71;45.76
47556;BME280;33291;46.222;26.460;2023-03-19T09:42:13;96867.63;;;11.85;45.28
47556;BME280;33291;46.222;26.460;2023-03-19T09:44:43;96877.69;;;12.00;44.67
47556;BME280;33291;46.222;26.460;2023-03-19T09:49:52;96864.34;;;12.13;44.13
47556;BME280;33291;46.222;26.460;2023-03-19T09:52:40;96853.06;;;12.12;43.71
47556;BME280;33291;46.222;26.460;2023-03-19T09:58:16;96852.91;;;12.33;44.22
47556;BME280;33291;46.222;26.460;2023-03-19T10:00:45;96853.44;;;12.47;43.64
47556;BME280;33291;46.222;26.460;2023-03-19T10:16:33;96826.75;;;12.80;43.10
47556;BME280;33291;46.222;26.460;2023-03-19T10:19:03;96824.19;;;12.98;42.50
47556;BME280;33291;46.222;26.460;2023-03-19T10:21:32;96830.63;;;13.04;42.56
47556;BME280;33291;46.222;26.460;2023-03-19T10:24:22;96809.97;;;13.01;42.40
47556;BME280;33291;46.222;26.460;2023-03-19T10:26:58;96816.66;;;13.13;42.61
47556;BME280;33291;46.222;26.460;2023-03-19T10:29:24;96811.16;;;13.17;42.28
47556;BME280;33291;46.222;26.460;2023-03-19T10:32:20;96819.59;;;13.28;42.03
47556;BME280;33291;46.222;26.460;2023-03-19T10:34:52;96807.06;;;13.32;41.84
47556;BME280;33291;46.222;26.460;2023-03-19T10:37:22;96808.00;;;13.31;42.02
47556;BME280;33291;46.222;26.460;2023-03-19T10:39:51;96813.53;;;13.38;41.95
47556;BME280;33291;46.222;26.460;2023-03-19T10:47:51;96797.81;;;13.38;42.42
47556;BME280;33291;46.222;26.460;2023-03-19T10:50:20;96772.78;;;13.25;42.16
47556;BME280;33291;46.222;26.460;2023-03-19T10:52:51;96798.03;;;13.44;42.43
47556;BME280;33291;46.222;26.460;2023-03-19T10:55:22;96784.00;;;13.45;42.67
47556;BME280;33291;46.222;26.460;2023-03-19T10:57:50;96789.78;;;13.57;42.11
47556;BME280;33291;46.222;26.460;2023-03-19T11:00:26;96779.78;;;13.53;42.18
47556;BME280;33291;46.222;26.460;2023-03-19T11:02:55;96779.03;;;13.60;42.29
47556;BME280;33291;46.222;26.460;2023-03-19T11:07:50;96743.44;;;13.49;42.49
47556;BME280;33291;46.222;26.460;2023-03-19T11:10:20;96760.78;;;13.68;41.95
47556;BME280;33291;46.222;26.460;2023-03-19T11:12:51;96758.53;;;13.74;41.50
47556;BME280;33291;46.222;26.460;2023-03-19T11:15:25;96758.13;;;13.86;41.61
47556;BME280;33291;46.222;26.460;2023-03-19T11:18:00;96754.06;;;13.92;41.64
47556;BME280;33291;46.222;26.460;2023-03-19T11:20:32;96752.94;;;13.95;41.13
47556;BME280;33291;46.222;26.460;2023-03-19T11:22:59;96736.19;;;13.88;41.33
47556;BME280;33291;46.222;26.460;2023-03-19T11:25:42;96741.28;;;13.89;41.66
47556;BME280;33291;46.222;26.460;2023-03-19T11:28:15;96746.59;;;13.97;42.20
47556;BME280;33291;46.222;26.460;2023-03-19T11:41:54;96733.22;;;14.09;41.62
47556;BME280;33291;46.222;26.460;2023-03-19T11:47:56;96731.59;;;14.08;41.52
47556;BME280;33291;46.222;26.460;2023-03-19T11:50:26;96729.63;;;14.10;41.69
47556;BME280;33291;46.222;26.460;2023-03-19T11:55:42;96720.50;;;14.14;41.38
47556;BME280;33291;46.222;26.460;2023-03-19T11:58:28;96717.00;;;14.05;41.23
47556;BME280;33291;46.222;26.460;2023-03-19T12:01:22;96722.13;;;14.15;41.41
47556;BME280;33291;46.222;26.460;2023-03-19T12:04:16;96719.88;;;14.20;41.48
47556;BME280;33291;46.222;26.460;2023-03-19T12:06:52;96712.88;;;14.29;41.10
47556;BME280;33291;46.222;26.460;2023-03-19T12:12:21;96706.16;;;14.34;40.98
47556;BME280;33291;46.222;26.460;2023-03-19T12:17:50;96697.66;;;14.32;40.33
47556;BME280;33291;46.222;26.460;2023-03-19T12:20:36;96697.03;;;14.38;40.52
47556;BME280;33291;46.222;26.460;2023-03-19T12:37:28;96696.41;;;14.45;40.11
47556;BME280;33291;46.222;26.460;2023-03-19T12:40:21;96698.38;;;14.51;39.69
47556;BME280;33291;46.222;26.460;2023-03-19T12:42:51;96692.81;;;14.46;40.01
47556;BME280;33291;46.222;26.460;2023-03-19T12:45:33;96691.47;;;14.50;39.86
47556;BME280;33291;46.222;26.460;2023-03-19T12:48:13;96691.31;;;14.51;39.53
47556;BME280;33291;46.222;26.460;2023-03-19T12:50:43;96675.44;;;14.45;39.94
47556;BME280;33291;46.222;26.460;2023-03-19T12:53:29;96662.63;;;14.33;39.56
47556;BME280;33291;46.222;26.460;2023-03-19T12:56:05;96688.88;;;14.50;40.08
47556;BME280;33291;46.222;26.460;2023-03-19T12:58:50;96687.56;;;14.54;39.58
47556;BME280;33291;46.222;26.460;2023-03-19T13:01:25;96681.69;;;14.52;39.83
47556;BME280;33291;46.222;26.460;2023-03-19T13:03:58;96660.00;;;14.33;39.94
47556;BME280;33291;46.222;26.460;2023-03-19T13:06:35;96679.72;;;14.54;39.90
47556;BME280;33291;46.222;26.460;2023-03-19T13:11:42;96669.31;;;14.36;40.34
47556;BME280;33291;46.222;26.460;2023-03-19T13:17:40;96683.91;;;14.38;41.04
47556;BME280;33291;46.222;26.460;2023-03-19T13:22:55;96680.28;;;14.31;41.00
47556;BME280;33291;46.222;26.460;2023-03-19T13:25:30;96678.97;;;14.27;40.87
47556;BME280;33291;46.222;26.460;2023-03-19T13:27:57;96682.81;;;14.15;41.13
47556;BME280;33291;46.222;26.460;2023-03-19T13:30:23;96685.41;;;14.07;41.49
47556;BME280;33291;46.222;26.460;2023-03-19T13:33:03;96678.13;;;13.92;41.72
47556;BME280;33291;46.222;26.460;2023-03-19T13:35:49;96688.72;;;13.82;42.01
47556;BME280;33291;46.222;26.460;2023-03-19T13:38:23;96679.34;;;13.72;42.07
47556;BME280;33291;46.222;26.460;2023-03-19T13:40:51;96689.72;;;13.63;42.35
47556;BME280;33291;46.222;26.460;2023-03-19T13:46:37;96673.78;;;13.48;42.99
47556;BME280;33291;46.222;26.460;2023-03-19T13:54:43;96664.56;;;13.62;42.68
47556;BME280;33291;46.222;26.460;2023-03-19T13:59:41;96663.16;;;13.76;42.86
47556;BME280;33291;46.222;26.460;2023-03-19T14:07:33;96649.84;;;13.96;42.35
47556;BME280;33291;46.222;26.460;2023-03-19T14:10:24;96642.81;;;13.96;42.50
47556;BME280;33291;46.222;26.460;2023-03-19T14:12:51;96652.00;;;14.00;42.42
47556;BME280;33291;46.222;26.460;2023-03-19T14:15:27;96654.78;;;13.99;42.68
47556;BME280;33291;46.222;26.460;2023-03-19T14:18:02;96655.28;;;14.02;42.70
47556;BME280;33291;46.222;26.460;2023-03-19T14:21:04;96626.34;;;13.78;43.07
47556;BME280;33291;46.222;26.460;2023-03-19T14:23:29;96660.06;;;13.81;43.22
47556;BME280;33291;46.222;26.460;2023-03-19T14:26:15;96660.25;;;13.88;43.19
47556;BME280;33291;46.222;26.460;2023-03-19T14:34:33;96657.00;;;14.20;42.73
47556;BME280;33291;46.222;26.460;2023-03-19T14:37:03;96656.19;;;14.62;41.82